createdAt,value
2018-12-12T00:00:58.899Z,91.82
2018-12-12T00:03:26.386Z,91.99
2018-12-12T00:05:53.870Z,91.73
2018-12-12T00:08:21.371Z,92.09
2018-12-12T00:10:48.879Z,91.58
2018-12-12T00:13:16.435Z,91.35
2018-12-12T00:15:43.918Z,92.21
2018-12-12T00:18:11.473Z,92.31
2018-12-12T00:20:39.005Z,91.39
2018-12-12T00:23:06.514Z,91.73
2018-12-12T00:25:33.993Z,91.81
2018-12-12T00:28:01.484Z,91.91
2018-12-12T00:30:28.970Z,92.64
2018-12-12T00:32:56.522Z,92.71
2018-12-12T00:35:23.972Z,92.07
2018-12-12T00:37:51.563Z,91.81
2018-12-12T00:40:19.083Z,92.08
2018-12-12T00:42:46.588Z,91.90
2018-12-12T00:45:14.132Z,92.96
2018-12-12T00:47:41.584Z,93.42
2018-12-12T00:50:09.071Z,92.51
2018-12-12T00:52:36.679Z,93.93
2018-12-12T00:55:04.401Z,93.29
2018-12-12T00:57:31.979Z,94.21
2018-12-12T00:59:59.526Z,94.87
2018-12-12T01:02:26.994Z,94.91
2018-12-12T01:04:54.453Z,95.07
2018-12-12T01:07:21.936Z,94.76
2018-12-12T01:09:49.578Z,94.73
2018-12-12T01:12:17.078Z,94.20
2018-12-12T01:14:44.533Z,94.28
2018-12-12T01:17:12.033Z,95.50
2018-12-12T01:19:39.522Z,94.36
2018-12-12T01:22:06.989Z,94.67
2018-12-12T01:24:34.472Z,94.10
2018-12-12T01:27:01.966Z,94.44
2018-12-12T01:29:29.489Z,95.21
2018-12-12T01:31:56.980Z,95.08
2018-12-12T01:34:24.472Z,94.78
2018-12-12T01:36:52.643Z,95.17
2018-12-12T01:39:20.158Z,94.99
2018-12-12T01:41:47.628Z,94.67
2018-12-12T01:44:15.107Z,94.94
2018-12-12T01:46:42.617Z,94.76
2018-12-12T01:49:10.097Z,95.06
2018-12-12T01:51:37.575Z,95.62
2018-12-12T01:54:05.049Z,96.03
2018-12-12T01:56:32.533Z,95.82
2018-12-12T01:58:59.992Z,95.75
2018-12-12T02:01:27.453Z,96.49
2018-12-12T02:03:54.913Z,95.77
2018-12-12T02:06:22.421Z,95.43
2018-12-12T02:08:49.872Z,96.03
2018-12-12T02:11:17.355Z,94.98
2018-12-12T02:13:44.830Z,96.19
2018-12-12T02:16:12.481Z,95.80
2018-12-12T02:18:40.903Z,95.57
2018-12-12T02:21:08.387Z,95.72
2018-12-12T02:23:35.915Z,95.38
2018-12-12T02:26:03.452Z,95.26
2018-12-12T02:28:30.909Z,95.34
2018-12-12T02:30:58.414Z,95.58
2018-12-12T02:33:25.989Z,95.22
2018-12-12T02:35:53.551Z,96.02
2018-12-12T02:38:21.025Z,96.20
2018-12-12T02:40:48.529Z,95.58
2018-12-12T02:43:16.007Z,95.04
2018-12-12T02:45:43.517Z,95.82
2018-12-12T02:48:11.089Z,96.09
2018-12-12T02:50:38.542Z,95.70
2018-12-12T02:53:06.083Z,95.20
2018-12-12T02:55:33.554Z,95.80
2018-12-12T02:58:01.040Z,95.51
2018-12-12T03:03:02.371Z,96.53
2018-12-12T03:05:29.891Z,95.67
2018-12-12T03:07:57.397Z,96.43
2018-12-12T03:10:24.878Z,96.12
2018-12-12T03:12:52.339Z,96.70
2018-12-12T03:15:19.823Z,96.41
2018-12-12T03:17:47.297Z,95.88
2018-12-12T03:20:14.754Z,95.67
2018-12-12T03:22:42.216Z,95.91
2018-12-12T03:25:09.760Z,95.58
2018-12-12T03:27:37.260Z,96.23
2018-12-12T03:30:05.850Z,95.76
2018-12-12T03:32:33.405Z,95.81
2018-12-12T03:35:00.854Z,95.08
2018-12-12T03:37:28.391Z,95.22
2018-12-12T03:39:56.078Z,95.45
2018-12-12T03:42:23.726Z,94.51
2018-12-12T03:44:51.193Z,94.87
2018-12-12T03:47:18.774Z,94.96
2018-12-12T03:49:46.218Z,94.33
2018-12-12T03:52:13.685Z,94.73
2018-12-12T03:54:41.236Z,94.32
2018-12-12T03:57:08.711Z,94.39
2018-12-12T03:59:36.176Z,93.82
2018-12-12T04:02:03.704Z,94.79
2018-12-12T04:04:31.178Z,93.88
2018-12-12T04:06:58.652Z,93.71
2018-12-12T04:09:26.117Z,94.01
2018-12-12T04:11:53.710Z,94.10
2018-12-12T04:14:21.250Z,93.77
2018-12-12T04:16:48.750Z,93.32
2018-12-12T04:19:16.376Z,93.80
2018-12-12T04:21:43.887Z,93.05
2018-12-12T04:24:11.336Z,93.15
2018-12-12T04:26:38.779Z,93.54
2018-12-12T04:29:06.325Z,93.70
2018-12-12T04:31:33.800Z,93.28
2018-12-12T04:34:01.248Z,93.03
2018-12-12T04:36:28.816Z,93.01
2018-12-12T04:38:56.286Z,93.10
2018-12-12T04:41:23.783Z,93.31
2018-12-12T04:43:51.325Z,93.73
2018-12-12T04:46:18.792Z,92.84
2018-12-12T04:48:46.257Z,93.08
2018-12-12T04:51:13.806Z,92.61
2018-12-12T04:53:41.266Z,92.50
2018-12-12T04:56:08.882Z,93.90
2018-12-12T04:58:36.318Z,92.36
2018-12-12T05:01:03.813Z,93.54
2018-12-12T05:03:31.427Z,93.75
2018-12-12T05:05:58.899Z,93.06
2018-12-12T05:08:26.360Z,92.86
2018-12-12T05:10:53.888Z,92.28
2018-12-12T05:13:21.348Z,92.49
2018-12-12T05:15:48.851Z,91.41
2018-12-12T05:18:16.416Z,91.41
2018-12-12T05:20:44.004Z,91.72
2018-12-12T05:23:11.562Z,91.05
2018-12-12T05:25:39.088Z,91.22
2018-12-12T05:28:06.551Z,90.41
2018-12-12T05:30:34.016Z,91.31
2018-12-12T05:33:01.472Z,90.00
2018-12-12T05:35:29.060Z,90.88
2018-12-12T05:37:56.509Z,90.72
2018-12-12T05:40:24.325Z,91.06
2018-12-12T05:42:51.846Z,91.87
2018-12-12T05:45:20.058Z,91.51
2018-12-12T05:47:47.491Z,91.55
2018-12-12T05:50:15.002Z,92.13
2018-12-12T05:52:42.567Z,92.34
2018-12-12T05:55:10.043Z,92.49
2018-12-12T05:57:37.533Z,92.26
2018-12-12T06:00:05.826Z,92.58
2018-12-12T06:02:33.304Z,92.18
2018-12-12T06:05:00.755Z,92.08
2018-12-12T06:07:28.222Z,92.39
2018-12-12T06:09:55.699Z,92.65
2018-12-12T06:12:23.205Z,92.33
2018-12-12T06:14:50.651Z,92.81
2018-12-12T06:17:18.615Z,91.76
2018-12-12T06:19:46.320Z,92.16
2018-12-12T06:22:14.019Z,92.27
2018-12-12T06:24:41.541Z,92.12
2018-12-12T06:27:09.007Z,92.44
2018-12-12T06:29:36.525Z,93.41
2018-12-12T06:32:04.117Z,92.74
2018-12-12T06:34:31.595Z,93.83
2018-12-12T06:36:59.121Z,93.04
2018-12-12T06:39:26.687Z,93.29
2018-12-12T06:41:54.217Z,92.57
2018-12-12T06:44:21.698Z,92.60
2018-12-12T06:46:49.167Z,92.98
2018-12-12T06:49:16.679Z,92.61
2018-12-12T06:51:44.149Z,92.30
2018-12-12T06:54:11.600Z,93.15
2018-12-12T06:56:39.067Z,92.53
2018-12-12T06:59:06.527Z,92.20
2018-12-12T07:01:34.269Z,92.58
2018-12-12T07:04:01.719Z,92.29
2018-12-12T07:06:29.220Z,92.64
2018-12-12T07:08:56.714Z,92.81
2018-12-12T07:11:24.205Z,92.90
2018-12-12T07:13:51.671Z,93.14
2018-12-12T07:16:19.176Z,92.60
2018-12-12T07:18:46.699Z,92.91
2018-12-12T07:21:14.183Z,93.41
2018-12-12T07:23:42.167Z,93.37
2018-12-12T07:26:09.643Z,93.11
2018-12-12T07:28:37.101Z,92.72
2018-12-12T07:31:04.625Z,92.72
2018-12-12T07:33:32.090Z,92.18
2018-12-12T07:35:59.774Z,91.74
2018-12-12T07:38:27.411Z,91.98
2018-12-12T07:40:54.874Z,92.12
2018-12-12T07:43:22.334Z,91.96
2018-12-12T07:45:49.839Z,92.55
2018-12-12T07:48:17.322Z,92.01
2018-12-12T07:50:44.845Z,91.57
2018-12-12T07:53:12.322Z,91.59
2018-12-12T07:55:39.803Z,91.40
2018-12-12T07:58:07.316Z,91.32
2018-12-12T08:00:34.875Z,90.75
2018-12-12T08:03:06.318Z,90.66
2018-12-12T08:05:31.969Z,90.63
2018-12-12T08:07:59.517Z,90.41
2018-12-12T08:10:26.980Z,90.80
2018-12-12T08:12:54.428Z,89.75
2018-12-12T08:15:21.941Z,90.61
2018-12-12T08:17:49.452Z,89.54
2018-12-12T08:20:17.111Z,89.72
2018-12-12T08:22:44.614Z,89.47
2018-12-12T08:25:12.091Z,89.39
2018-12-12T08:27:39.710Z,90.39
2018-12-12T08:30:07.931Z,90.72
2018-12-12T08:32:35.458Z,89.94
2018-12-12T08:35:04.111Z,90.69
2018-12-12T08:37:31.570Z,91.79
2018-12-12T08:39:59.137Z,92.04
2018-12-12T08:42:26.652Z,92.72
2018-12-12T08:44:54.195Z,93.07
2018-12-12T08:47:21.675Z,93.66
2018-12-12T08:49:49.192Z,93.25
2018-12-12T08:52:16.676Z,93.18
2018-12-12T08:54:44.151Z,93.62
2018-12-12T08:57:11.842Z,94.07
2018-12-12T08:59:39.451Z,94.03
2018-12-12T09:02:06.961Z,93.98
2018-12-12T09:04:34.451Z,93.62
2018-12-12T09:07:01.924Z,93.37
2018-12-12T09:09:29.380Z,93.90
2018-12-12T09:11:57.041Z,93.91
2018-12-12T09:14:24.622Z,93.24
2018-12-12T09:16:53.366Z,93.43
2018-12-12T09:19:20.857Z,93.25
2018-12-12T09:21:48.374Z,93.16
2018-12-12T09:24:15.849Z,92.69
2018-12-12T09:26:43.312Z,92.34
2018-12-12T09:29:10.963Z,92.08
2018-12-12T09:31:38.427Z,92.91
2018-12-12T09:34:05.903Z,92.89
2018-12-12T09:36:33.643Z,91.91
2018-12-12T09:39:01.152Z,91.67
2018-12-12T09:41:28.738Z,92.38
2018-12-12T09:43:56.182Z,92.20
2018-12-12T09:46:23.766Z,92.01
2018-12-12T09:48:51.259Z,91.04
2018-12-12T09:51:18.785Z,90.99
2018-12-12T09:53:46.333Z,91.63
2018-12-12T09:56:13.913Z,92.13
2018-12-12T09:58:41.359Z,90.76
2018-12-12T10:01:08.939Z,90.32
2018-12-12T10:03:36.761Z,91.42
2018-12-12T10:06:04.372Z,92.01
2018-12-12T10:08:31.878Z,91.16
2018-12-12T10:10:59.383Z,90.81
2018-12-12T10:13:26.899Z,91.11
2018-12-12T10:15:54.536Z,90.01
2018-12-12T10:18:22.001Z,91.40
2018-12-12T10:20:49.579Z,90.03
2018-12-12T10:23:17.077Z,90.42
2018-12-12T10:25:44.609Z,90.29
2018-12-12T10:28:12.298Z,89.97
2018-12-12T10:30:39.817Z,90.55
2018-12-12T10:33:07.352Z,89.72
2018-12-12T10:35:34.946Z,90.51
2018-12-12T10:38:02.437Z,89.86
2018-12-12T10:40:29.975Z,88.97
2018-12-12T10:42:57.553Z,89.48
2018-12-12T10:45:25.055Z,89.11
2018-12-12T10:47:52.589Z,88.59
2018-12-12T10:50:20.055Z,88.20
2018-12-12T10:52:47.631Z,88.73
2018-12-12T10:55:15.157Z,88.21
2018-12-12T10:57:42.665Z,88.32
2018-12-12T11:00:12.877Z,87.66
2018-12-12T11:02:41.740Z,87.99
2018-12-12T11:05:09.252Z,88.02
2018-12-12T11:07:36.749Z,87.10
2018-12-12T11:10:05.019Z,87.77
2018-12-12T11:12:32.565Z,87.39
2018-12-12T11:15:00.270Z,86.81
2018-12-12T11:17:27.760Z,87.43
2018-12-12T11:19:55.245Z,86.75
2018-12-12T11:22:22.749Z,86.43
2018-12-12T11:24:50.215Z,86.66
2018-12-12T11:27:17.827Z,86.47
2018-12-12T11:29:45.328Z,86.48
2018-12-12T11:32:12.899Z,85.50
2018-12-12T11:34:40.366Z,85.70
2018-12-12T11:37:08.186Z,86.28
2018-12-12T11:39:35.731Z,84.90
2018-12-12T11:42:03.286Z,84.08
2018-12-12T11:44:30.817Z,83.98
2018-12-12T11:46:58.405Z,82.96
2018-12-12T11:49:25.877Z,83.84
2018-12-12T11:51:53.676Z,82.15
2018-12-12T11:54:21.353Z,82.04
2018-12-12T11:56:48.878Z,81.41
2018-12-12T11:59:16.358Z,82.14
2018-12-12T12:01:43.912Z,80.56
2018-12-12T12:04:11.677Z,80.25
2018-12-12T12:06:39.248Z,80.14
2018-12-12T12:09:07.111Z,79.23
2018-12-12T12:11:34.639Z,78.74
2018-12-12T12:14:02.177Z,78.80
2018-12-12T12:16:29.843Z,79.10
2018-12-12T12:18:57.420Z,79.01
2018-12-12T12:21:25.004Z,80.15
2018-12-12T12:23:52.538Z,80.74
2018-12-12T12:26:20.215Z,80.69
2018-12-12T12:28:47.744Z,80.86
2018-12-12T12:31:15.238Z,80.82
2018-12-12T12:33:42.842Z,80.35
2018-12-12T12:36:10.321Z,81.63
2018-12-12T12:38:37.864Z,81.67
2018-12-12T12:41:05.484Z,81.80
2018-12-12T12:43:32.981Z,82.38
2018-12-12T12:46:00.498Z,82.94
2018-12-12T12:48:28.090Z,81.81
2018-12-12T12:50:55.668Z,81.89
2018-12-12T12:53:23.184Z,82.00
2018-12-12T12:55:50.708Z,81.60
2018-12-12T12:58:18.281Z,81.19
2018-12-12T13:00:45.861Z,80.03
2018-12-12T13:03:14.936Z,80.40
2018-12-12T13:05:42.482Z,81.13
2018-12-12T13:08:10.049Z,80.91
2018-12-12T13:10:37.827Z,81.26
2018-12-12T13:13:05.558Z,81.41
2018-12-12T13:15:33.219Z,82.50
2018-12-12T13:18:00.717Z,82.23
2018-12-12T13:20:28.241Z,83.03
2018-12-12T13:22:55.706Z,83.37
2018-12-12T13:25:23.219Z,82.79
2018-12-12T13:27:50.712Z,82.31
2018-12-12T13:30:18.195Z,81.03
2018-12-12T13:32:45.685Z,78.93
2018-12-12T13:35:13.291Z,76.55
2018-12-12T13:37:40.784Z,76.87
2018-12-12T13:40:08.359Z,78.08
2018-12-12T13:42:35.851Z,76.87
2018-12-12T13:45:03.715Z,77.48
2018-12-12T13:47:31.334Z,77.80
2018-12-12T13:49:58.876Z,76.97
2018-12-12T13:52:26.474Z,77.23
2018-12-12T13:54:54.170Z,75.29
2018-12-12T13:57:21.679Z,75.08
2018-12-12T13:59:49.206Z,76.01
2018-12-12T14:02:16.648Z,75.73
2018-12-12T14:04:44.256Z,76.18
2018-12-12T14:07:11.740Z,76.16
2018-12-12T14:09:39.250Z,77.06
2018-12-12T14:12:06.792Z,76.51
2018-12-12T14:14:34.298Z,77.14
2018-12-12T14:17:01.782Z,77.04
2018-12-12T14:19:29.252Z,77.42
2018-12-12T14:21:57.921Z,77.37
2018-12-12T14:24:25.438Z,76.98
2018-12-12T14:26:52.912Z,77.60
2018-12-12T14:29:20.408Z,79.13
2018-12-12T14:31:47.991Z,79.23
2018-12-12T14:34:15.432Z,78.76
2018-12-12T15:00:49.419Z,80.68
2018-12-12T15:03:17.058Z,80.97
2018-12-12T15:05:44.545Z,80.83
2018-12-12T15:08:12.085Z,80.93
2018-12-12T15:10:39.588Z,79.93
2018-12-12T15:13:07.081Z,80.49
2018-12-12T15:15:34.610Z,79.61
2018-12-12T15:18:02.102Z,78.70
2018-12-12T15:20:29.558Z,77.94
2018-12-12T15:22:57.050Z,78.76
2018-12-12T15:25:24.512Z,78.04
2018-12-12T15:27:52.020Z,78.46
2018-12-12T15:30:19.486Z,77.50
2018-12-12T15:32:46.976Z,77.61
2018-12-12T15:35:14.710Z,77.76
2018-12-12T15:37:42.214Z,77.61
2018-12-12T15:40:09.828Z,76.65
2018-12-12T15:42:37.512Z,76.20
2018-12-12T15:45:06.300Z,77.40
2018-12-12T15:47:33.943Z,77.52
2018-12-12T15:50:01.392Z,78.50
2018-12-12T15:52:28.928Z,78.26
2018-12-12T15:54:56.430Z,78.82
2018-12-12T15:57:23.949Z,80.69
2018-12-12T15:59:51.447Z,81.14
2018-12-12T16:02:18.960Z,80.30
2018-12-12T16:04:49.077Z,80.40
2018-12-12T16:07:16.022Z,81.25
2018-12-12T16:09:43.509Z,80.51
2018-12-12T16:12:11.016Z,79.74
2018-12-12T16:14:38.500Z,80.09
2018-12-12T16:17:06.078Z,80.23
2018-12-12T16:19:33.587Z,79.67
2018-12-12T16:22:01.042Z,80.28
2018-12-12T16:24:28.587Z,79.50
2018-12-12T16:26:56.137Z,79.34
2018-12-12T16:29:23.643Z,80.29
2018-12-12T16:31:51.109Z,79.79
2018-12-12T16:34:18.621Z,79.57
2018-12-12T16:36:46.173Z,80.59
2018-12-12T16:39:13.792Z,81.31
2018-12-12T16:41:41.434Z,82.18
2018-12-12T16:44:09.050Z,82.13
2018-12-12T16:46:36.737Z,82.58
2018-12-12T16:49:04.315Z,82.41
2018-12-12T16:51:31.829Z,83.27
2018-12-12T16:53:59.290Z,83.73
2018-12-12T16:56:26.984Z,84.21
2018-12-12T16:58:54.460Z,84.40
2018-12-12T17:01:22.172Z,83.91
2018-12-12T17:03:49.663Z,84.61
2018-12-12T17:06:17.231Z,84.26
2018-12-12T17:08:44.745Z,84.35
2018-12-12T17:11:12.217Z,84.40
2018-12-12T17:30:55.146Z,81.21
2018-12-12T17:33:22.676Z,81.02
2018-12-12T17:35:50.264Z,81.20
2018-12-12T17:38:17.750Z,80.84
2018-12-12T17:40:45.247Z,81.21
2018-12-12T17:43:12.772Z,80.78
2018-12-12T17:45:40.321Z,80.76
2018-12-12T17:48:07.832Z,81.43
2018-12-12T17:50:35.352Z,80.89
2018-12-12T17:53:02.828Z,80.61
2018-12-12T17:55:30.386Z,81.11
2018-12-12T17:57:57.923Z,80.43
2018-12-12T18:00:25.465Z,80.48
2018-12-12T18:02:52.909Z,80.95
2018-12-12T18:05:20.491Z,80.90
2018-12-12T18:07:48.033Z,80.45
2018-12-12T18:10:15.583Z,80.35
2018-12-12T18:12:43.082Z,80.13
2018-12-12T18:15:10.591Z,80.17
2018-12-12T18:17:38.073Z,81.14
2018-12-12T18:20:05.614Z,80.85
2018-12-12T18:22:33.181Z,81.31
2018-12-12T18:25:00.747Z,81.28
2018-12-12T18:27:28.263Z,81.41
2018-12-12T18:29:55.760Z,81.51
2018-12-12T19:09:54.486Z,81.79
2018-12-12T19:12:22.079Z,82.43
2018-12-12T19:14:55.557Z,83.13
2018-12-12T19:17:23.150Z,82.89
2018-12-12T19:19:50.730Z,82.80
2018-12-12T19:22:18.295Z,82.65
2018-12-12T19:24:45.846Z,82.63
2018-12-12T19:27:14.446Z,83.27
2018-12-12T19:29:41.965Z,82.94
2018-12-12T19:32:09.471Z,83.15
2018-12-12T19:34:36.969Z,83.02
2018-12-12T19:37:04.569Z,83.46
2018-12-12T19:39:32.847Z,82.74
2018-12-12T19:42:00.384Z,83.68
2018-12-12T19:44:28.643Z,83.33
2018-12-12T19:46:56.375Z,83.11
2018-12-12T19:49:24.664Z,82.48
2018-12-12T19:51:52.212Z,82.81
2018-12-12T19:54:19.718Z,82.52
2018-12-12T19:56:47.248Z,82.88
2018-12-12T19:59:14.799Z,83.07
2018-12-12T20:04:29.103Z,82.69
2018-12-12T20:06:56.621Z,83.25
2018-12-12T20:09:24.193Z,82.80
2018-12-12T20:11:51.730Z,83.18
2018-12-12T20:14:19.291Z,83.46
2018-12-12T20:16:47.642Z,83.78
2018-12-12T20:19:15.180Z,83.67
2018-12-12T20:21:43.460Z,83.93
2018-12-12T20:24:11.690Z,83.92
2018-12-12T20:26:39.298Z,83.38
2018-12-12T20:29:06.971Z,82.97
2018-12-12T20:31:34.462Z,83.20
2018-12-12T20:34:02.000Z,82.97
2018-12-12T20:36:29.480Z,83.03
2018-12-12T20:38:57.407Z,82.16
2018-12-12T20:41:24.994Z,82.84
2018-12-12T20:43:52.563Z,82.84
2018-12-12T20:46:20.092Z,82.90
2018-12-12T20:48:47.659Z,83.20
2018-12-12T20:51:15.189Z,82.72
2018-12-12T20:53:42.755Z,83.42
2018-12-12T20:56:10.308Z,83.30
2018-12-12T21:01:12.206Z,83.72
2018-12-12T21:03:40.652Z,84.69
2018-12-12T21:06:08.972Z,84.81
2018-12-12T21:08:36.492Z,84.89
2018-12-12T21:11:04.703Z,84.41
2018-12-12T21:13:32.233Z,84.71
2018-12-12T21:16:00.599Z,85.11
2018-12-12T21:18:28.140Z,84.39
2018-12-12T21:20:55.793Z,84.95
2018-12-12T21:23:23.331Z,84.97
2018-12-12T21:25:51.780Z,84.82
2018-12-12T21:28:19.904Z,85.32
2018-12-12T21:30:47.459Z,85.67
2018-12-12T21:33:16.628Z,85.90
2018-12-12T21:35:44.119Z,86.05
2018-12-12T21:38:11.757Z,85.92
2018-12-12T21:40:39.346Z,85.91
2018-12-12T21:43:07.225Z,85.49
2018-12-12T21:45:34.732Z,86.10
2018-12-12T21:48:02.227Z,86.10
2018-12-12T21:50:29.782Z,86.38
2018-12-12T21:52:57.277Z,85.94
2018-12-12T21:55:24.941Z,86.18
2018-12-12T21:57:52.494Z,86.38
2018-12-12T22:00:20.050Z,86.74
2018-12-12T22:02:47.632Z,88.17
2018-12-12T22:05:15.290Z,88.24
2018-12-12T22:07:42.792Z,88.43
2018-12-12T22:10:10.393Z,88.36
2018-12-12T22:12:37.882Z,88.83
2018-12-12T22:15:06.071Z,88.55
2018-12-12T22:17:33.659Z,88.47
2018-12-12T22:20:01.174Z,88.31
2018-12-12T22:22:28.655Z,88.89
2018-12-12T22:24:56.143Z,88.71
2018-12-12T22:27:23.692Z,88.58
2018-12-12T22:29:51.242Z,88.42
2018-12-12T22:32:18.710Z,88.33
2018-12-12T22:34:46.224Z,88.87
2018-12-12T22:37:13.735Z,89.07
2018-12-12T22:39:41.297Z,88.98
2018-12-12T22:42:08.786Z,89.07
2018-12-12T22:44:36.284Z,88.93
2018-12-12T22:47:03.812Z,89.33
2018-12-12T22:49:31.336Z,89.51
2018-12-12T22:51:58.828Z,89.85
2018-12-12T22:54:26.394Z,89.65
2018-12-12T22:56:53.965Z,90.17
2018-12-12T22:59:21.445Z,89.91
2018-12-12T23:01:48.940Z,90.00
2018-12-12T23:04:16.434Z,90.09
2018-12-12T23:06:43.940Z,89.92
2018-12-12T23:09:11.998Z,90.48
2018-12-12T23:11:39.471Z,90.99
2018-12-12T23:14:06.929Z,90.55
2018-12-12T23:16:34.398Z,90.55
2018-12-12T23:19:01.882Z,90.54
2018-12-12T23:21:29.346Z,90.93
2018-12-12T23:23:56.849Z,90.45
2018-12-12T23:26:24.338Z,91.42
2018-12-12T23:28:51.829Z,91.09
2018-12-12T23:31:19.314Z,91.47
2018-12-12T23:33:46.879Z,91.24
2018-12-12T23:36:14.380Z,90.71
2018-12-12T23:38:41.914Z,91.29
2018-12-12T23:41:09.398Z,91.21
2018-12-12T23:43:36.906Z,90.73
2018-12-12T23:46:04.388Z,90.82
2018-12-12T23:48:31.858Z,90.54
2018-12-12T23:50:59.320Z,91.39
2018-12-12T23:53:26.823Z,91.62
2018-12-12T23:55:54.302Z,91.35
2018-12-12T23:58:21.858Z,91.56
